sensor_id;sensor_type;location;lat;lon;timestamp;P1;durP1;ratioP1;P2;durP2;ratioP2
1460;SDS011;724;49.910;12.530;2023-03-12T00:01:35;11.00;;;10.40;;
1460;SDS011;724;49.910;12.530;2023-03-12T00:04:04;11.20;;;10.60;;
1460;SDS011;724;49.910;12.530;2023-03-12T00:06:32;11.10;;;10.50;;
1460;SDS011;724;49.910;12.530;2023-03-12T00:08:59;11.48;;;10.88;;
1460;SDS011;724;49.910;12.530;2023-03-12T00:11:26;10.10;;;9.60;;
1460;SDS011;724;49.910;12.530;2023-03-12T00:13:54;11.30;;;10.70;;
1460;SDS011;724;49.910;12.530;2023-03-12T00:16:22;10.95;;;10.35;;
1460;SDS011;724;49.910;12.530;2023-03-12T00:18:50;10.70;;;10.10;;
1460;SDS011;724;49.910;12.530;2023-03-12T00:21:18;10.27;;;9.77;;
1460;SDS011;724;49.910;12.530;2023-03-12T00:23:47;10.18;;;9.68;;
1460;SDS011;724;49.910;12.530;2023-03-12T00:26:15;9.50;;;9.00;;
1460;SDS011;724;49.910;12.530;2023-03-12T00:28:43;9.60;;;9.10;;
1460;SDS011;724;49.910;12.530;2023-03-12T00:31:13;9.60;;;9.10;;
1460;SDS011;724;49.910;12.530;2023-03-12T00:33:41;9.73;;;9.23;;
1460;SDS011;724;49.910;12.530;2023-03-12T00:36:08;9.65;;;9.15;;
1460;SDS011;724;49.910;12.530;2023-03-12T00:38:35;9.85;;;9.35;;
1460;SDS011;724;49.910;12.530;2023-03-12T00:41:03;10.00;;;9.50;;
1460;SDS011;724;49.910;12.530;2023-03-12T00:43:30;10.80;;;10.20;;
1460;SDS011;724;49.910;12.530;2023-03-12T00:45:56;11.10;;;10.50;;
1460;SDS011;724;49.910;12.530;2023-03-12T00:48:23;10.85;;;10.25;;
1460;SDS011;724;49.910;12.530;2023-03-12T00:50:50;10.40;;;9.90;;
1460;SDS011;724;49.910;12.530;2023-03-12T00:53:17;9.90;;;9.40;;
1460;SDS011;724;49.910;12.530;2023-03-12T00:55:43;9.90;;;9.40;;
1460;SDS011;724;49.910;12.530;2023-03-12T00:58:11;9.60;;;9.10;;
1460;SDS011;724;49.910;12.530;2023-03-12T01:00:38;9.90;;;9.40;;
1460;SDS011;724;49.910;12.530;2023-03-12T01:03:05;9.80;;;9.30;;
1460;SDS011;724;49.910;12.530;2023-03-12T01:05:32;9.30;;;8.80;;
1460;SDS011;724;49.910;12.530;2023-03-12T01:08:01;9.45;;;8.95;;
1460;SDS011;724;49.910;12.530;2023-03-12T01:10:28;9.80;;;9.30;;
1460;SDS011;724;49.910;12.530;2023-03-12T01:12:55;9.20;;;8.70;;
1460;SDS011;724;49.910;12.530;2023-03-12T01:15:23;9.50;;;9.00;;
1460;SDS011;724;49.910;12.530;2023-03-12T01:17:50;9.27;;;8.77;;
1460;SDS011;724;49.910;12.530;2023-03-12T01:20:17;9.45;;;8.95;;
1460;SDS011;724;49.910;12.530;2023-03-12T01:22:44;9.30;;;8.80;;
1460;SDS011;724;49.910;12.530;2023-03-12T01:25:11;9.00;;;8.50;;
1460;SDS011;724;49.910;12.530;2023-03-12T01:27:38;9.68;;;9.18;;
1460;SDS011;724;49.910;12.530;2023-03-12T01:30:05;9.07;;;8.57;;
1460;SDS011;724;49.910;12.530;2023-03-12T01:32:34;9.30;;;8.80;;
1460;SDS011;724;49.910;12.530;2023-03-12T01:35:01;9.70;;;9.20;;
1460;SDS011;724;49.910;12.530;2023-03-12T01:37:28;9.57;;;9.07;;
1460;SDS011;724;49.910;12.530;2023-03-12T01:39:55;9.65;;;9.15;;
1460;SDS011;724;49.910;12.530;2023-03-12T01:42:21;9.98;;;9.48;;
1460;SDS011;724;49.910;12.530;2023-03-12T01:44:51;9.73;;;9.23;;
1460;SDS011;724;49.910;12.530;2023-03-12T01:47:19;9.70;;;9.20;;
1460;SDS011;724;49.910;12.530;2023-03-12T01:49:48;9.80;;;9.30;;
1460;SDS011;724;49.910;12.530;2023-03-12T01:52:17;9.95;;;9.45;;
1460;SDS011;724;49.910;12.530;2023-03-12T01:54:48;10.10;;;9.60;;
1460;SDS011;724;49.910;12.530;2023-03-12T01:57:19;10.05;;;9.55;;
1460;SDS011;724;49.910;12.530;2023-03-12T01:59:49;10.00;;;9.50;;
1460;SDS011;724;49.910;12.530;2023-03-12T02:02:19;9.85;;;9.35;;
1460;SDS011;724;49.910;12.530;2023-03-12T02:04:52;10.38;;;9.85;;
1460;SDS011;724;49.910;12.530;2023-03-12T02:07:28;10.63;;;10.02;;
1460;SDS011;724;49.910;12.530;2023-03-12T02:09:55;10.85;;;10.25;;
1460;SDS011;724;49.910;12.530;2023-03-12T02:12:22;10.57;;;10.00;;
1460;SDS011;724;49.910;12.530;2023-03-12T02:14:49;10.70;;;10.10;;
1460;SDS011;724;49.910;12.530;2023-03-12T02:17:15;10.75;;;10.15;;
1460;SDS011;724;49.910;12.530;2023-03-12T02:19:45;10.60;;;10.00;;
1460;SDS011;724;49.910;12.530;2023-03-12T02:22:21;10.60;;;10.00;;
1460;SDS011;724;49.910;12.530;2023-03-12T02:24:50;10.77;;;10.18;;
1460;SDS011;724;49.910;12.530;2023-03-12T02:27:23;10.73;;;10.13;;
1460;SDS011;724;49.910;12.530;2023-03-12T02:29:50;10.60;;;10.00;;
1460;SDS011;724;49.910;12.530;2023-03-12T02:32:19;10.82;;;10.23;;
1460;SDS011;724;49.910;12.530;2023-03-12T02:34:49;10.32;;;9.82;;
1460;SDS011;724;49.910;12.530;2023-03-12T02:37:16;11.18;;;10.57;;
1460;SDS011;724;49.910;12.530;2023-03-12T02:39:43;11.65;;;11.05;;
1460;SDS011;724;49.910;12.530;2023-03-12T02:42:16;11.95;;;11.35;;
1460;SDS011;724;49.910;12.530;2023-03-12T02:44:45;11.35;;;10.75;;
1460;SDS011;724;49.910;12.530;2023-03-12T02:47:11;11.50;;;10.90;;
1460;SDS011;724;49.910;12.530;2023-03-12T02:49:38;11.50;;;10.90;;
1460;SDS011;724;49.910;12.530;2023-03-12T02:52:05;11.48;;;10.88;;
1460;SDS011;724;49.910;12.530;2023-03-12T02:54:32;11.13;;;10.52;;
1460;SDS011;724;49.910;12.530;2023-03-12T02:56:58;11.10;;;10.50;;
1460;SDS011;724;49.910;12.530;2023-03-12T02:59:26;11.00;;;10.40;;
1460;SDS011;724;49.910;12.530;2023-03-12T03:01:55;11.57;;;10.98;;
1460;SDS011;724;49.910;12.530;2023-03-12T03:04:23;11.20;;;10.60;;
1460;SDS011;724;49.910;12.530;2023-03-12T03:06:51;11.55;;;10.95;;
1460;SDS011;724;49.910;12.530;2023-03-12T03:09:18;11.13;;;10.52;;
1460;SDS011;724;49.910;12.530;2023-03-12T03:11:46;11.30;;;10.70;;
1460;SDS011;724;49.910;12.530;2023-03-12T03:14:13;10.90;;;10.30;;
1460;SDS011;724;49.910;12.530;2023-03-12T03:16:40;11.35;;;10.75;;
1460;SDS011;724;49.910;12.530;2023-03-12T03:19:08;11.15;;;10.55;;
1460;SDS011;724;49.910;12.530;2023-03-12T03:21:35;10.77;;;10.18;;
1460;SDS011;724;49.910;12.530;2023-03-12T03:24:02;10.45;;;9.93;;
1460;SDS011;724;49.910;12.530;2023-03-12T03:26:30;10.68;;;10.07;;
1460;SDS011;724;49.910;12.530;2023-03-12T03:28:56;10.82;;;10.23;;
1460;SDS011;724;49.910;12.530;2023-03-12T03:31:23;10.82;;;10.23;;
1460;SDS011;724;49.910;12.530;2023-03-12T03:33:50;10.93;;;10.32;;
1460;SDS011;724;49.910;12.530;2023-03-12T03:36:18;10.10;;;9.60;;
1460;SDS011;724;49.910;12.530;2023-03-12T03:38:47;10.68;;;10.07;;
1460;SDS011;724;49.910;12.530;2023-03-12T03:41:14;10.30;;;9.80;;
1460;SDS011;724;49.910;12.530;2023-03-12T03:43:42;10.93;;;10.32;;
1460;SDS011;724;49.910;12.530;2023-03-12T03:46:09;10.85;;;10.25;;
1460;SDS011;724;49.910;12.530;2023-03-12T03:48:36;10.80;;;10.20;;
1460;SDS011;724;49.910;12.530;2023-03-12T03:51:03;10.98;;;10.38;;
1460;SDS011;724;49.910;12.530;2023-03-12T03:53:33;11.07;;;10.48;;
1460;SDS011;724;49.910;12.530;2023-03-12T03:56:03;10.70;;;10.10;;
1460;SDS011;724;49.910;12.530;2023-03-12T03:58:32;10.95;;;10.35;;
1460;SDS011;724;49.910;12.530;2023-03-12T04:00:58;10.70;;;10.10;;
1460;SDS011;724;49.910;12.530;2023-03-12T04:03:25;11.48;;;10.88;;
1460;SDS011;724;49.910;12.530;2023-03-12T04:05:56;11.18;;;10.57;;
1460;SDS011;724;49.910;12.530;2023-03-12T04:08:25;10.82;;;10.23;;
1460;SDS011;724;49.910;12.530;2023-03-12T04:10:54;10.95;;;10.35;;
1460;SDS011;724;49.910;12.530;2023-03-12T04:13:21;10.40;;;9.90;;
1460;SDS011;724;49.910;12.530;2023-03-12T04:15:48;10.90;;;10.30;;
1460;SDS011;724;49.910;12.530;2023-03-12T04:18:16;10.60;;;10.00;;
1460;SDS011;724;49.910;12.530;2023-03-12T04:20:43;10.60;;;10.00;;
1460;SDS011;724;49.910;12.530;2023-03-12T04:23:10;10.60;;;10.00;;
1460;SDS011;724;49.910;12.530;2023-03-12T04:25:37;10.63;;;10.02;;
1460;SDS011;724;49.910;12.530;2023-03-12T04:28:05;10.40;;;9.90;;
1460;SDS011;724;49.910;12.530;2023-03-12T04:30:32;10.38;;;9.88;;
1460;SDS011;724;49.910;12.530;2023-03-12T04:33:02;10.77;;;10.18;;
1460;SDS011;724;49.910;12.530;2023-03-12T04:35:29;10.32;;;9.82;;
1460;SDS011;724;49.910;12.530;2023-03-12T04:37:55;10.00;;;9.50;;
1460;SDS011;724;49.910;12.530;2023-03-12T04:40:22;10.35;;;9.85;;
1460;SDS011;724;49.910;12.530;2023-03-12T04:42:49;10.30;;;9.80;;
1460;SDS011;724;49.910;12.530;2023-03-12T04:45:17;10.55;;;9.98;;
1460;SDS011;724;49.910;12.530;2023-03-12T04:47:44;9.80;;;9.30;;
1460;SDS011;724;49.910;12.530;2023-03-12T04:50:11;9.80;;;9.30;;
1460;SDS011;724;49.910;12.530;2023-03-12T04:52:38;9.95;;;9.45;;
1460;SDS011;724;49.910;12.530;2023-03-12T04:55:05;9.80;;;9.30;;
1460;SDS011;724;49.910;12.530;2023-03-12T04:57:33;9.95;;;9.45;;
1460;SDS011;724;49.910;12.530;2023-03-12T05:00:00;10.15;;;9.65;;
1460;SDS011;724;49.910;12.530;2023-03-12T05:02:30;10.40;;;9.90;;
1460;SDS011;724;49.910;12.530;2023-03-12T05:04:57;10.45;;;9.93;;
1460;SDS011;724;49.910;12.530;2023-03-12T05:07:24;11.10;;;10.50;;
1460;SDS011;724;49.910;12.530;2023-03-12T05:09:53;10.85;;;10.25;;
1460;SDS011;724;49.910;12.530;2023-03-12T05:12:19;10.80;;;10.20;;
1460;SDS011;724;49.910;12.530;2023-03-12T05:14:46;10.95;;;10.35;;
1460;SDS011;724;49.910;12.530;2023-03-12T05:17:13;10.90;;;10.30;;
1460;SDS011;724;49.910;12.530;2023-03-12T05:19:41;10.30;;;9.80;;
1460;SDS011;724;49.910;12.530;2023-03-12T05:22:08;10.55;;;9.98;;
1460;SDS011;724;49.910;12.530;2023-03-12T05:24:35;11.25;;;10.65;;
1460;SDS011;724;49.910;12.530;2023-03-12T05:27:01;10.93;;;10.32;;
1460;SDS011;724;49.910;12.530;2023-03-12T05:29:28;10.23;;;9.73;;
1460;SDS011;724;49.910;12.530;2023-03-12T05:31:59;10.30;;;9.80;;
1460;SDS011;724;49.910;12.530;2023-03-12T05:34:26;10.90;;;10.30;;
1460;SDS011;724;49.910;12.530;2023-03-12T05:36:55;10.30;;;9.80;;
1460;SDS011;724;49.910;12.530;2023-03-12T05:39:23;10.20;;;9.70;;
1460;SDS011;724;49.910;12.530;2023-03-12T05:41:50;10.60;;;10.00;;
1460;SDS011;724;49.910;12.530;2023-03-12T05:44:20;10.77;;;10.18;;
1460;SDS011;724;49.910;12.530;2023-03-12T05:46:48;11.32;;;10.73;;
1460;SDS011;724;49.910;12.530;2023-03-12T05:49:14;11.65;;;11.05;;
1460;SDS011;724;49.910;12.530;2023-03-12T05:51:41;11.73;;;11.13;;
1460;SDS011;724;49.910;12.530;2023-03-12T05:54:09;11.50;;;10.90;;
1460;SDS011;724;49.910;12.530;2023-03-12T05:56:36;11.27;;;10.68;;
1460;SDS011;724;49.910;12.530;2023-03-12T05:59:03;11.05;;;10.45;;
1460;SDS011;724;49.910;12.530;2023-03-12T06:01:31;11.10;;;10.50;;
1460;SDS011;724;49.910;12.530;2023-03-12T06:03:57;11.10;;;10.50;;
1460;SDS011;724;49.910;12.530;2023-03-12T06:06:24;11.23;;;10.63;;
1460;SDS011;724;49.910;12.530;2023-03-12T06:08:51;10.90;;;10.30;;
1460;SDS011;724;49.910;12.530;2023-03-12T06:11:19;10.85;;;10.25;;
1460;SDS011;724;49.910;12.530;2023-03-12T06:13:46;10.95;;;10.35;;
1460;SDS011;724;49.910;12.530;2023-03-12T06:16:14;11.00;;;10.40;;
1460;SDS011;724;49.910;12.530;2023-03-12T06:18:42;10.60;;;10.00;;
1460;SDS011;724;49.910;12.530;2023-03-12T06:21:10;10.63;;;10.02;;
1460;SDS011;724;49.910;12.530;2023-03-12T06:23:38;10.40;;;9.90;;
1460;SDS011;724;49.910;12.530;2023-03-12T06:26:06;10.63;;;10.02;;
1460;SDS011;724;49.910;12.530;2023-03-12T06:28:35;10.57;;;10.00;;
1460;SDS011;724;49.910;12.530;2023-03-12T06:31:02;10.95;;;10.35;;
1460;SDS011;724;49.910;12.530;2023-03-12T06:33:29;10.35;;;9.85;;
1460;SDS011;724;49.910;12.530;2023-03-12T06:35:57;11.15;;;10.55;;
1460;SDS011;724;49.910;12.530;2023-03-12T06:38:25;10.77;;;10.18;;
1460;SDS011;724;49.910;12.530;2023-03-12T06:40:52;11.00;;;10.40;;
1460;SDS011;724;49.910;12.530;2023-03-12T06:43:20;11.00;;;10.40;;
1460;SDS011;724;49.910;12.530;2023-03-12T06:45:48;10.90;;;10.30;;
1460;SDS011;724;49.910;12.530;2023-03-12T06:48:15;11.10;;;10.50;;
1460;SDS011;724;49.910;12.530;2023-03-12T06:50:42;12.20;;;11.60;;
1460;SDS011;724;49.910;12.530;2023-03-12T06:53:09;12.40;;;11.80;;
1460;SDS011;724;49.910;12.530;2023-03-12T06:55:36;12.90;;;12.20;;
1460;SDS011;724;49.910;12.530;2023-03-12T06:58:03;13.10;;;12.40;;
1460;SDS011;724;49.910;12.530;2023-03-12T07:00:30;12.88;;;12.18;;
1460;SDS011;724;49.910;12.530;2023-03-12T07:02:58;13.32;;;12.63;;
1460;SDS011;724;49.910;12.530;2023-03-12T07:05:25;13.25;;;12.55;;
1460;SDS011;724;49.910;12.530;2023-03-12T07:07:52;13.00;;;12.30;;
1460;SDS011;724;49.910;12.530;2023-03-12T07:10:19;13.60;;;12.90;;
1460;SDS011;724;49.910;12.530;2023-03-12T07:12:46;14.48;;;13.77;;
1460;SDS011;724;49.910;12.530;2023-03-12T07:15:12;14.82;;;14.02;;
1460;SDS011;724;49.910;12.530;2023-03-12T07:17:39;15.20;;;14.40;;
1460;SDS011;724;49.910;12.530;2023-03-12T07:20:09;15.05;;;14.25;;
1460;SDS011;724;49.910;12.530;2023-03-12T07:22:36;15.40;;;14.60;;
1460;SDS011;724;49.910;12.530;2023-03-12T07:25:03;15.40;;;14.60;;
1460;SDS011;724;49.910;12.530;2023-03-12T07:27:30;15.27;;;14.48;;
1460;SDS011;724;49.910;12.530;2023-03-12T07:29:57;15.10;;;14.30;;
1460;SDS011;724;49.910;12.530;2023-03-12T07:32:24;15.10;;;14.30;;
1460;SDS011;724;49.910;12.530;2023-03-12T07:34:51;15.00;;;14.20;;
1460;SDS011;724;49.910;12.530;2023-03-12T07:37:19;14.95;;;14.15;;
1460;SDS011;724;49.910;12.530;2023-03-12T07:39:46;15.20;;;14.40;;
1460;SDS011;724;49.910;12.530;2023-03-12T07:42:16;15.00;;;14.20;;
1460;SDS011;724;49.910;12.530;2023-03-12T07:44:43;14.90;;;14.10;;
1460;SDS011;724;49.910;12.530;2023-03-12T07:47:09;14.80;;;14.00;;
1460;SDS011;724;49.910;12.530;2023-03-12T07:49:36;14.90;;;14.10;;
1460;SDS011;724;49.910;12.530;2023-03-12T07:52:06;15.10;;;14.30;;
1460;SDS011;724;49.910;12.530;2023-03-12T07:54:36;14.80;;;14.00;;
1460;SDS011;724;49.910;12.530;2023-03-12T07:57:03;14.90;;;14.10;;
1460;SDS011;724;49.910;12.530;2023-03-12T07:59:30;15.00;;;14.20;;
1460;SDS011;724;49.910;12.530;2023-03-12T08:01:57;14.80;;;14.00;;
1460;SDS011;724;49.910;12.530;2023-03-12T08:04:24;14.50;;;13.80;;
1460;SDS011;724;49.910;12.530;2023-03-12T08:06:51;14.50;;;13.80;;
1460;SDS011;724;49.910;12.530;2023-03-12T08:09:17;14.50;;;13.80;;
1460;SDS011;724;49.910;12.530;2023-03-12T08:11:45;14.40;;;13.70;;
1460;SDS011;724;49.910;12.530;2023-03-12T08:14:12;14.30;;;13.60;;
1460;SDS011;724;49.910;12.530;2023-03-12T08:16:39;14.50;;;13.80;;
1460;SDS011;724;49.910;12.530;2023-03-12T08:19:06;14.30;;;13.60;;
1460;SDS011;724;49.910;12.530;2023-03-12T08:21:34;14.60;;;13.90;;
1460;SDS011;724;49.910;12.530;2023-03-12T08:24:00;14.40;;;13.70;;
1460;SDS011;724;49.910;12.530;2023-03-12T08:26:27;14.18;;;13.48;;
1460;SDS011;724;49.910;12.530;2023-03-12T08:28:56;14.20;;;13.50;;
1460;SDS011;724;49.910;12.530;2023-03-12T08:31:24;14.60;;;13.90;;
1460;SDS011;724;49.910;12.530;2023-03-12T08:33:51;14.40;;;13.70;;
1460;SDS011;724;49.910;12.530;2023-03-12T08:36:18;14.40;;;13.70;;
1460;SDS011;724;49.910;12.530;2023-03-12T08:38:45;14.30;;;13.60;;
1460;SDS011;724;49.910;12.530;2023-03-12T08:41:11;14.23;;;13.52;;
1460;SDS011;724;49.910;12.530;2023-03-12T08:43:38;14.50;;;13.80;;
1460;SDS011;724;49.910;12.530;2023-03-12T08:46:06;14.40;;;13.70;;
1460;SDS011;724;49.910;12.530;2023-03-12T08:48:33;14.30;;;13.60;;
1460;SDS011;724;49.910;12.530;2023-03-12T08:51:03;14.40;;;13.70;;
1460;SDS011;724;49.910;12.530;2023-03-12T08:53:31;14.40;;;13.70;;
1460;SDS011;724;49.910;12.530;2023-03-12T08:56:00;14.75;;;13.98;;
1460;SDS011;724;49.910;12.530;2023-03-12T08:58:27;14.20;;;13.50;;
1460;SDS011;724;49.910;12.530;2023-03-12T09:00:54;14.20;;;13.50;;
1460;SDS011;724;49.910;12.530;2023-03-12T09:03:24;14.40;;;13.70;;
1460;SDS011;724;49.910;12.530;2023-03-12T09:06:01;14.40;;;13.70;;
1460;SDS011;724;49.910;12.530;2023-03-12T09:08:29;14.00;;;13.30;;
1460;SDS011;724;49.910;12.530;2023-03-12T09:10:58;13.60;;;12.90;;
1460;SDS011;724;49.910;12.530;2023-03-12T09:13:24;14.13;;;13.43;;
1460;SDS011;724;49.910;12.530;2023-03-12T09:15:51;14.35;;;13.65;;
1460;SDS011;724;49.910;12.530;2023-03-12T09:18:25;14.40;;;13.70;;
1460;SDS011;724;49.910;12.530;2023-03-12T09:20:51;14.50;;;13.80;;
1460;SDS011;724;49.910;12.530;2023-03-12T09:23:18;14.55;;;13.85;;
1460;SDS011;724;49.910;12.530;2023-03-12T09:25:45;14.60;;;13.90;;
1460;SDS011;724;49.910;12.530;2023-03-12T09:28:13;14.50;;;13.80;;
1460;SDS011;724;49.910;12.530;2023-03-12T09:30:40;14.80;;;14.00;;
1460;SDS011;724;49.910;12.530;2023-03-12T09:33:07;14.50;;;13.80;;
1460;SDS011;724;49.910;12.530;2023-03-12T09:35:35;14.80;;;14.00;;
1460;SDS011;724;49.910;12.530;2023-03-12T09:38:02;15.10;;;14.30;;
1460;SDS011;724;49.910;12.530;2023-03-12T09:40:29;15.30;;;14.50;;
1460;SDS011;724;49.910;12.530;2023-03-12T09:42:58;15.30;;;14.50;;
1460;SDS011;724;49.910;12.530;2023-03-12T09:45:29;15.60;;;14.80;;
1460;SDS011;724;49.910;12.530;2023-03-12T09:47:59;15.40;;;14.60;;
1460;SDS011;724;49.910;12.530;2023-03-12T09:50:29;15.10;;;14.30;;
1460;SDS011;724;49.910;12.530;2023-03-12T09:53:00;15.20;;;14.40;;
1460;SDS011;724;49.910;12.530;2023-03-12T09:55:31;15.05;;;14.25;;
1460;SDS011;724;49.910;12.530;2023-03-12T09:58:01;14.40;;;13.70;;
1460;SDS011;724;49.910;12.530;2023-03-12T10:00:30;14.40;;;13.70;;
1460;SDS011;724;49.910;12.530;2023-03-12T10:03:08;14.48;;;13.77;;
1460;SDS011;724;49.910;12.530;2023-03-12T10:05:44;14.50;;;13.80;;
1460;SDS011;724;49.910;12.530;2023-03-12T10:08:18;15.20;;;14.40;;
1460;SDS011;724;49.910;12.530;2023-03-12T10:10:50;14.60;;;13.90;;
1460;SDS011;724;49.910;12.530;2023-03-12T10:13:36;14.60;;;13.90;;
1460;SDS011;724;49.910;12.530;2023-03-12T10:16:26;14.80;;;14.00;;
1460;SDS011;724;49.910;12.530;2023-03-12T10:19:06;15.40;;;14.60;;
1460;SDS011;724;49.910;12.530;2023-03-12T10:21:47;15.32;;;14.52;;
1460;SDS011;724;49.910;12.530;2023-03-12T10:24:27;15.30;;;14.50;;
1460;SDS011;724;49.910;12.530;2023-03-12T10:27:06;15.00;;;14.20;;
1460;SDS011;724;49.910;12.530;2023-03-12T10:29:36;15.50;;;14.70;;
1460;SDS011;724;49.910;12.530;2023-03-12T10:32:06;16.00;;;15.20;;
1460;SDS011;724;49.910;12.530;2023-03-12T10:34:41;15.50;;;14.70;;
1460;SDS011;724;49.910;12.530;2023-03-12T10:37:12;15.55;;;14.75;;
1460;SDS011;724;49.910;12.530;2023-03-12T10:39:47;15.40;;;14.60;;
1460;SDS011;724;49.910;12.530;2023-03-12T10:42:16;15.10;;;14.30;;
1460;SDS011;724;49.910;12.530;2023-03-12T10:44:44;15.10;;;14.30;;
1460;SDS011;724;49.910;12.530;2023-03-12T10:47:21;15.10;;;14.30;;
1460;SDS011;724;49.910;12.530;2023-03-12T10:49:53;15.07;;;14.27;;
1460;SDS011;724;49.910;12.530;2023-03-12T10:52:20;15.20;;;14.40;;
1460;SDS011;724;49.910;12.530;2023-03-12T10:54:50;15.20;;;14.40;;
1460;SDS011;724;49.910;12.530;2023-03-12T10:57:18;14.30;;;13.60;;
1460;SDS011;724;49.910;12.530;2023-03-12T10:59:46;14.52;;;13.82;;
1460;SDS011;724;49.910;12.530;2023-03-12T11:02:27;15.10;;;14.30;;
1460;SDS011;724;49.910;12.530;2023-03-12T11:04:57;15.30;;;14.50;;
1460;SDS011;724;49.910;12.530;2023-03-12T11:07:26;15.80;;;15.00;;
1460;SDS011;724;49.910;12.530;2023-03-12T11:10:13;15.10;;;14.30;;
1460;SDS011;724;49.910;12.530;2023-03-12T11:12:53;15.30;;;14.50;;
1460;SDS011;724;49.910;12.530;2023-03-12T11:15:23;15.77;;;14.98;;
1460;SDS011;724;49.910;12.530;2023-03-12T11:17:53;15.30;;;14.50;;
1460;SDS011;724;49.910;12.530;2023-03-12T11:20:45;15.20;;;14.40;;
1460;SDS011;724;49.910;12.530;2023-03-12T11:23:14;15.50;;;14.70;;
1460;SDS011;724;49.910;12.530;2023-03-12T11:25:44;15.18;;;14.38;;
1460;SDS011;724;49.910;12.530;2023-03-12T11:28:20;15.43;;;14.63;;
1460;SDS011;724;49.910;12.530;2023-03-12T11:30:49;15.40;;;14.60;;
1460;SDS011;724;49.910;12.530;2023-03-12T11:33:18;15.40;;;14.60;;
1460;SDS011;724;49.910;12.530;2023-03-12T11:35:48;15.30;;;14.50;;
1460;SDS011;724;49.910;12.530;2023-03-12T11:38:24;15.00;;;14.20;;
1460;SDS011;724;49.910;12.530;2023-03-12T11:41:00;15.20;;;14.40;;
1460;SDS011;724;49.910;12.530;2023-03-12T11:43:39;15.10;;;14.30;;
1460;SDS011;724;49.910;12.530;2023-03-12T11:46:26;15.10;;;14.30;;
1460;SDS011;724;49.910;12.530;2023-03-12T11:49:03;15.20;;;14.40;;
1460;SDS011;724;49.910;12.530;2023-03-12T11:51:45;15.45;;;14.65;;
1460;SDS011;724;49.910;12.530;2023-03-12T11:57:23;15.50;;;14.70;;
1460;SDS011;724;49.910;12.530;2023-03-12T12:00:08;15.10;;;14.30;;
1460;SDS011;724;49.910;12.530;2023-03-12T12:02:43;15.10;;;14.30;;
1460;SDS011;724;49.910;12.530;2023-03-12T12:05:35;15.35;;;14.55;;
1460;SDS011;724;49.910;12.530;2023-03-12T12:08:13;15.15;;;14.35;;
1460;SDS011;724;49.910;12.530;2023-03-12T12:10:56;15.07;;;14.27;;
1460;SDS011;724;49.910;12.530;2023-03-12T12:13:34;14.80;;;14.00;;
1460;SDS011;724;49.910;12.530;2023-03-12T12:16:12;15.02;;;14.23;;
1460;SDS011;724;49.910;12.530;2023-03-12T12:18:55;14.95;;;14.15;;
1460;SDS011;724;49.910;12.530;2023-03-12T12:21:35;14.80;;;14.00;;
1460;SDS011;724;49.910;12.530;2023-03-12T12:24:16;15.10;;;14.30;;
1460;SDS011;724;49.910;12.530;2023-03-12T12:26:56;15.10;;;14.30;;
1460;SDS011;724;49.910;12.530;2023-03-12T12:29:37;14.80;;;14.00;;
1460;SDS011;724;49.910;12.530;2023-03-12T12:32:22;14.90;;;14.10;;
1460;SDS011;724;49.910;12.530;2023-03-12T12:35:03;15.00;;;14.20;;
1460;SDS011;724;49.910;12.530;2023-03-12T12:37:41;15.00;;;14.20;;
1460;SDS011;724;49.910;12.530;2023-03-12T12:40:15;14.80;;;14.00;;
1460;SDS011;724;49.910;12.530;2023-03-12T12:43:01;14.40;;;13.70;;
1460;SDS011;724;49.910;12.530;2023-03-12T12:45:51;14.50;;;13.80;;
1460;SDS011;724;49.910;12.530;2023-03-12T12:48:24;14.30;;;13.60;;
1460;SDS011;724;49.910;12.530;2023-03-12T12:50:54;14.50;;;13.80;;
1460;SDS011;724;49.910;12.530;2023-03-12T12:53:24;15.13;;;14.32;;
1460;SDS011;724;49.910;12.530;2023-03-12T12:55:58;14.80;;;14.00;;
1460;SDS011;724;49.910;12.530;2023-03-12T12:58:40;14.60;;;13.90;;
1460;SDS011;724;49.910;12.530;2023-03-12T13:01:19;14.30;;;13.60;;
1460;SDS011;724;49.910;12.530;2023-03-12T13:03:46;14.20;;;13.50;;
1460;SDS011;724;49.910;12.530;2023-03-12T13:06:14;14.10;;;13.40;;
1460;SDS011;724;49.910;12.530;2023-03-12T13:09:00;13.90;;;13.20;;
1460;SDS011;724;49.910;12.530;2023-03-12T13:11:42;13.95;;;13.25;;
1460;SDS011;724;49.910;12.530;2023-03-12T13:14:11;13.40;;;12.70;;
1460;SDS011;724;49.910;12.530;2023-03-12T13:16:47;13.20;;;12.50;;
1460;SDS011;724;49.910;12.530;2023-03-12T13:22:07;13.07;;;12.38;;
1460;SDS011;724;49.910;12.530;2023-03-12T13:24:41;12.00;;;11.40;;
1460;SDS011;724;49.910;12.530;2023-03-12T13:27:17;12.20;;;11.60;;
1460;SDS011;724;49.910;12.530;2023-03-12T13:29:48;12.50;;;11.90;;
1460;SDS011;724;49.910;12.530;2023-03-12T13:35:35;12.05;;;11.45;;
1460;SDS011;724;49.910;12.530;2023-03-12T13:38:04;11.80;;;11.20;;
1460;SDS011;724;49.910;12.530;2023-03-12T13:40:37;11.60;;;11.00;;
1460;SDS011;724;49.910;12.530;2023-03-12T13:43:09;10.82;;;10.23;;
1460;SDS011;724;49.910;12.530;2023-03-12T13:45:53;10.80;;;10.20;;
1460;SDS011;724;49.910;12.530;2023-03-12T13:48:24;10.18;;;9.68;;
1460;SDS011;724;49.910;12.530;2023-03-12T13:50:52;9.70;;;9.20;;
1460;SDS011;724;49.910;12.530;2023-03-12T13:53:23;9.50;;;9.00;;
1460;SDS011;724;49.910;12.530;2023-03-12T13:55:58;9.63;;;9.13;;
1460;SDS011;724;49.910;12.530;2023-03-12T13:58:27;9.30;;;8.80;;
1460;SDS011;724;49.910;12.530;2023-03-12T14:00:59;8.93;;;8.43;;
1460;SDS011;724;49.910;12.530;2023-03-12T14:03:31;8.00;;;7.60;;
1460;SDS011;724;49.910;12.530;2023-03-12T14:06:15;7.70;;;7.30;;
1460;SDS011;724;49.910;12.530;2023-03-12T14:08:52;6.90;;;6.50;;
1460;SDS011;724;49.910;12.530;2023-03-12T14:11:41;5.50;;;5.20;;
1460;SDS011;724;49.910;12.530;2023-03-12T14:14:23;4.70;;;4.40;;
1460;SDS011;724;49.910;12.530;2023-03-12T14:16:57;4.45;;;4.15;;
1460;SDS011;724;49.910;12.530;2023-03-12T14:19:32;3.50;;;3.30;;
1460;SDS011;724;49.910;12.530;2023-03-12T14:22:04;2.90;;;2.70;;
1460;SDS011;724;49.910;12.530;2023-03-12T14:24:36;2.30;;;2.10;;
1460;SDS011;724;49.910;12.530;2023-03-12T14:27:13;1.90;;;1.80;;
1460;SDS011;724;49.910;12.530;2023-03-12T14:29:47;1.70;;;1.60;;
1460;SDS011;724;49.910;12.530;2023-03-12T14:32:21;1.30;;;1.20;;
1460;SDS011;724;49.910;12.530;2023-03-12T14:35:07;0.90;;;0.80;;
1460;SDS011;724;49.910;12.530;2023-03-12T14:37:53;0.70;;;0.60;;
1460;SDS011;724;49.910;12.530;2023-03-12T14:40:29;0.60;;;0.50;;
1460;SDS011;724;49.910;12.530;2023-03-12T14:43:19;0.50;;;0.40;;
1460;SDS011;724;49.910;12.530;2023-03-12T14:45:59;0.50;;;0.40;;
1460;SDS011;724;49.910;12.530;2023-03-12T14:48:30;0.50;;;0.40;;
1460;SDS011;724;49.910;12.530;2023-03-12T14:51:05;0.50;;;0.40;;
1460;SDS011;724;49.910;12.530;2023-03-12T14:53:43;0.50;;;0.40;;
1460;SDS011;724;49.910;12.530;2023-03-12T14:56:21;0.40;;;0.30;;
1460;SDS011;724;49.910;12.530;2023-03-12T14:58:53;0.40;;;0.30;;
1460;SDS011;724;49.910;12.530;2023-03-12T15:01:20;0.40;;;0.30;;
1460;SDS011;724;49.910;12.530;2023-03-12T15:03:50;0.30;;;0.20;;
1460;SDS011;724;49.910;12.530;2023-03-12T15:06:27;0.30;;;0.20;;
1460;SDS011;724;49.910;12.530;2023-03-12T15:08:57;0.30;;;0.20;;
1460;SDS011;724;49.910;12.530;2023-03-12T15:11:28;0.30;;;0.20;;
1460;SDS011;724;49.910;12.530;2023-03-12T15:14:00;0.30;;;0.20;;
1460;SDS011;724;49.910;12.530;2023-03-12T15:16:29;0.20;;;0.10;;
1460;SDS011;724;49.910;12.530;2023-03-12T15:18:56;0.30;;;0.20;;
1460;SDS011;724;49.910;12.530;2023-03-12T15:21:23;0.20;;;0.10;;
1460;SDS011;724;49.910;12.530;2023-03-12T15:23:52;0.20;;;0.10;;